createdAt,value
2018-04-07T00:01:27.226Z,6.50
2018-04-07T00:03:56.030Z,6.50
2018-04-07T00:06:25.376Z,6.50
2018-04-07T00:08:54.266Z,6.40
2018-04-07T00:11:23.902Z,6.40
2018-04-07T00:13:52.916Z,6.40
2018-04-07T00:16:22.426Z,6.30
2018-04-07T00:18:52.120Z,6.40
2018-04-07T00:21:20.948Z,6.50
2018-04-07T00:23:50.127Z,6.40
2018-04-07T00:26:19.246Z,6.40
2018-04-07T00:28:47.931Z,6.40
2018-04-07T00:31:16.645Z,6.50
2018-04-07T00:33:45.409Z,6.50
2018-04-07T00:36:13.821Z,6.50
2018-04-07T00:38:42.116Z,6.50
2018-04-07T00:41:10.583Z,6.60
2018-04-07T00:43:38.875Z,6.60
2018-04-07T00:46:07.172Z,6.50
2018-04-07T00:48:35.711Z,6.50
2018-04-07T00:51:04.282Z,6.40
2018-04-07T00:53:32.933Z,6.30
2018-04-07T00:56:01.422Z,6.30
2018-04-07T00:58:30.249Z,6.30
2018-04-07T01:00:59.955Z,6.20
2018-04-07T01:03:28.622Z,6.30
2018-04-07T01:05:57.327Z,6.30
2018-04-07T01:08:26.525Z,6.30
2018-04-07T01:10:56.215Z,6.30
2018-04-07T01:13:25.252Z,6.30
2018-04-07T01:18:30.144Z,6.10
2018-04-07T01:20:58.946Z,6.00
2018-04-07T01:23:28.518Z,6.00
2018-04-07T01:25:57.613Z,6.00
2018-04-07T01:28:26.219Z,5.90
2018-04-07T01:30:54.934Z,6.00
2018-04-07T01:33:23.730Z,5.90
2018-04-07T01:35:52.495Z,5.80
2018-04-07T01:38:21.573Z,5.80
2018-04-07T01:40:51.695Z,5.80
2018-04-07T01:43:22.239Z,5.80
2018-04-07T01:45:52.249Z,5.80
2018-04-07T01:48:21.989Z,5.90
2018-04-07T01:50:51.219Z,5.80
2018-04-07T01:53:20.311Z,5.80
2018-04-07T01:55:50.303Z,5.70
2018-04-07T01:58:18.865Z,5.60
2018-04-07T02:00:48.141Z,5.70
2018-04-07T02:03:16.955Z,5.70
2018-04-07T02:05:45.268Z,5.80
2018-04-07T02:08:13.587Z,5.80
2018-04-07T02:10:41.972Z,5.80
2018-04-07T02:13:10.274Z,5.80
2018-04-07T02:15:38.595Z,5.80
2018-04-07T02:18:06.934Z,5.80
2018-04-07T02:20:35.247Z,5.80
2018-04-07T02:23:03.569Z,5.80
2018-04-07T02:25:32.091Z,5.80
2018-04-07T02:28:00.709Z,5.90
2018-04-07T02:30:29.348Z,5.90
2018-04-07T02:32:57.983Z,6.00
2018-04-07T02:35:26.624Z,6.00
2018-04-07T02:37:55.138Z,6.00
2018-04-07T02:40:23.883Z,6.00
2018-04-07T02:42:52.563Z,6.00
2018-04-07T02:45:22.109Z,6.10
2018-04-07T02:47:51.165Z,6.10
2018-04-07T02:50:20.123Z,6.00
2018-04-07T02:52:49.315Z,6.00
2018-04-07T02:55:18.513Z,6.00
2018-04-07T02:57:46.957Z,6.00
2018-04-07T03:00:32.464Z,6.00
2018-04-07T03:03:01.225Z,6.10
2018-04-07T03:05:30.549Z,6.00
2018-04-07T03:07:59.166Z,5.90
2018-04-07T03:10:28.749Z,5.90
2018-04-07T03:12:57.592Z,5.90
2018-04-07T03:15:26.183Z,6.00
2018-04-07T03:17:54.706Z,6.00
2018-04-07T03:20:24.068Z,6.00
2018-04-07T03:22:52.919Z,6.00
2018-04-07T03:25:21.754Z,6.00
2018-04-07T03:27:50.480Z,6.00
2018-04-07T03:30:20.136Z,6.00
2018-04-07T03:32:48.547Z,6.00
2018-04-07T03:35:17.374Z,5.90
2018-04-07T03:37:45.816Z,5.90
2018-04-07T03:40:14.134Z,5.90
2018-04-07T03:42:42.434Z,6.00
2018-04-07T03:45:10.731Z,6.00
2018-04-07T03:47:39.019Z,6.00
2018-04-07T03:50:07.354Z,5.90
2018-04-07T03:52:35.813Z,5.90
2018-04-07T03:55:04.150Z,5.90
2018-04-07T03:57:32.489Z,5.90
2018-04-07T04:00:01.156Z,6.00
2018-04-07T04:02:29.765Z,6.00
2018-04-07T04:04:58.652Z,6.10
2018-04-07T04:07:28.154Z,6.00
2018-04-07T04:09:56.644Z,6.00
2018-04-07T04:12:25.503Z,5.90
2018-04-07T04:14:54.596Z,6.00
2018-04-07T04:17:23.458Z,6.00
2018-04-07T04:19:52.664Z,5.90
2018-04-07T04:22:22.255Z,5.90
2018-04-07T04:24:51.198Z,5.90
2018-04-07T04:27:20.848Z,5.90
2018-04-07T04:29:49.865Z,5.80
2018-04-07T04:32:19.868Z,5.80
2018-04-07T04:34:49.396Z,5.80
2018-04-07T04:37:17.790Z,5.80
2018-04-07T04:39:46.300Z,5.70
2018-04-07T04:42:14.607Z,5.80
2018-04-07T04:44:42.954Z,5.80
2018-04-07T04:47:11.359Z,5.80
2018-04-07T04:49:39.666Z,5.90
2018-04-07T04:52:07.965Z,5.80
2018-04-07T04:54:36.340Z,5.80
2018-04-07T04:57:04.719Z,5.90
2018-04-07T04:59:33.520Z,5.90
2018-04-07T05:02:02.124Z,5.80
2018-04-07T05:04:30.771Z,5.70
2018-04-07T05:06:59.489Z,5.90
2018-04-07T05:09:28.243Z,6.00
2018-04-07T05:11:57.034Z,6.10
2018-04-07T05:14:26.314Z,5.80
2018-04-07T05:16:55.236Z,5.80
2018-04-07T05:19:24.023Z,5.60
2018-04-07T05:21:53.052Z,5.90
2018-04-07T05:24:23.037Z,5.80
2018-04-07T05:26:52.151Z,5.80
2018-04-07T05:29:21.326Z,6.10
2018-04-07T05:31:51.824Z,6.10
2018-04-07T05:34:21.449Z,6.10
2018-04-07T05:36:50.678Z,6.10
2018-04-07T05:39:19.325Z,6.30
2018-04-07T05:41:47.877Z,6.30
2018-04-07T05:44:16.745Z,6.20
2018-04-07T05:46:45.052Z,6.20
2018-04-07T05:49:13.518Z,6.20
2018-04-07T05:51:41.864Z,6.30
2018-04-07T05:54:10.180Z,6.40
2018-04-07T05:56:39.258Z,6.70
2018-04-07T05:59:07.580Z,6.70
2018-04-07T06:01:36.731Z,6.80
2018-04-07T06:04:05.354Z,6.80
2018-04-07T06:06:33.936Z,6.80
2018-04-07T06:09:02.338Z,6.80
2018-04-07T06:11:31.015Z,6.90
2018-04-07T06:13:59.683Z,6.90
2018-04-07T06:16:28.302Z,6.90
2018-04-07T06:18:57.275Z,7.00
2018-04-07T06:21:26.287Z,7.10
2018-04-07T06:23:55.569Z,7.30
2018-04-07T06:26:29.285Z,7.40
2018-04-07T06:28:58.039Z,7.40
2018-04-07T06:31:26.812Z,7.40
2018-04-07T06:33:55.377Z,7.40
2018-04-07T06:36:24.105Z,7.40
2018-04-07T06:38:52.792Z,7.60
2018-04-07T06:41:21.583Z,7.70
2018-04-07T06:43:50.310Z,7.70
2018-04-07T06:46:18.944Z,7.80
2018-04-07T06:48:47.366Z,7.80
2018-04-07T06:51:16.498Z,7.80
2018-04-07T06:53:44.892Z,7.80
2018-04-07T06:56:13.251Z,7.90
2018-04-07T06:58:41.556Z,8.00
2018-04-07T07:01:09.956Z,8.10
2018-04-07T07:03:38.267Z,8.10
2018-04-07T07:06:06.577Z,8.30
2018-04-07T07:08:35.754Z,8.70
2018-04-07T07:11:04.271Z,8.70
2018-04-07T07:13:32.768Z,8.90
2018-04-07T07:16:02.120Z,9.10
2018-04-07T07:18:30.824Z,9.10
2018-04-07T07:20:59.426Z,9.20
2018-04-07T07:23:28.071Z,9.20
2018-04-07T07:25:56.601Z,9.20
2018-04-07T07:28:25.478Z,9.20
2018-04-07T07:30:54.488Z,9.30
2018-04-07T07:33:23.499Z,9.40
2018-04-07T07:35:52.428Z,9.40
2018-04-07T07:38:23.379Z,9.50
2018-04-07T07:40:53.160Z,9.50
2018-04-07T07:43:22.983Z,9.50
2018-04-07T07:45:53.152Z,9.70
2018-04-07T07:48:22.377Z,9.70
2018-04-07T07:50:53.654Z,9.80
2018-04-07T07:53:23.277Z,9.90
2018-04-07T07:55:52.622Z,9.90
2018-04-07T07:58:21.793Z,9.90
2018-04-07T08:00:51.670Z,9.90
2018-04-07T08:03:20.643Z,9.80
2018-04-07T08:05:49.462Z,10.00
2018-04-07T08:08:18.039Z,10.00
2018-04-07T08:10:47.135Z,10.10
2018-04-07T08:13:16.355Z,10.30
2018-04-07T08:15:44.661Z,10.30
2018-04-07T08:18:13.734Z,10.50
2018-04-07T08:20:42.087Z,10.50
2018-04-07T08:23:10.394Z,10.60
2018-04-07T08:25:39.621Z,10.80
2018-04-07T08:28:07.952Z,10.80
2018-04-07T08:30:36.275Z,10.90
2018-04-07T08:33:05.367Z,11.20
2018-04-07T08:35:33.822Z,11.20
2018-04-07T08:38:02.424Z,11.40
2018-04-07T08:40:30.757Z,11.60
2018-04-07T08:42:59.127Z,11.80
2018-04-07T08:45:28.464Z,12.00
2018-04-07T08:47:57.559Z,12.40
2018-04-07T08:50:26.436Z,12.30
2018-04-07T08:52:55.099Z,12.50
2018-04-07T08:55:23.809Z,12.70
2018-04-07T08:57:52.745Z,12.90
2018-04-07T09:00:21.899Z,13.20
2018-04-07T09:05:25.547Z,13.90
2018-04-07T09:07:54.068Z,13.90
2018-04-07T09:10:22.914Z,14.00
2018-04-07T09:12:51.420Z,14.20
2018-04-07T09:15:21.979Z,14.60
2018-04-07T09:17:52.556Z,14.70
2018-04-07T09:20:21.335Z,14.60
2018-04-07T09:22:50.182Z,14.70
2018-04-07T09:25:18.661Z,14.70
2018-04-07T09:27:47.287Z,14.70
2018-04-07T09:30:16.440Z,14.70
2018-04-07T09:32:45.637Z,15.00
2018-04-07T09:35:14.800Z,15.20
2018-04-07T09:37:43.108Z,15.20
2018-04-07T09:40:11.450Z,15.20
2018-04-07T09:42:39.752Z,15.40
2018-04-07T09:45:08.860Z,15.70
2018-04-07T09:47:37.265Z,15.70
2018-04-07T09:50:05.632Z,15.80
2018-04-07T09:52:34.099Z,15.80
2018-04-07T09:55:02.782Z,15.80
2018-04-07T09:57:31.349Z,15.80
2018-04-07T10:00:00.860Z,16.00
2018-04-07T10:02:35.005Z,16.00
2018-04-07T10:05:03.616Z,16.00
2018-04-07T10:07:32.085Z,15.90
2018-04-07T10:10:01.011Z,15.90
2018-04-07T10:12:29.880Z,15.90
2018-04-07T10:14:58.584Z,16.00
2018-04-07T10:17:27.242Z,16.00
2018-04-07T10:19:56.622Z,16.40
2018-04-07T10:22:25.711Z,16.40
2018-04-07T10:24:54.780Z,16.50
2018-04-07T10:27:23.957Z,16.60
2018-04-07T10:29:52.959Z,16.70
2018-04-07T10:32:22.796Z,16.90
2018-04-07T10:34:51.483Z,16.80
2018-04-07T10:37:20.329Z,17.00
2018-04-07T10:39:49.012Z,17.10
2018-04-07T10:42:17.517Z,17.00
2018-04-07T10:44:45.970Z,16.90
2018-04-07T10:47:14.371Z,16.90
2018-04-07T10:49:42.646Z,16.80
2018-04-07T10:52:11.822Z,16.70
2018-04-07T10:54:40.127Z,16.70
2018-04-07T10:57:08.456Z,16.90
2018-04-07T10:59:36.822Z,16.90
2018-04-07T11:02:05.139Z,16.90
2018-04-07T11:04:33.806Z,16.80
2018-04-07T11:07:02.534Z,17.00
2018-04-07T11:09:31.096Z,17.10
2018-04-07T11:11:59.720Z,17.10
2018-04-07T11:14:28.366Z,17.10
2018-04-07T11:16:57.182Z,17.10
2018-04-07T11:19:26.814Z,17.10
2018-04-07T11:21:55.267Z,17.10
2018-04-07T11:24:23.998Z,17.20
2018-04-07T11:26:53.078Z,17.30
2018-04-07T11:29:22.482Z,17.40
2018-04-07T11:31:51.518Z,17.40
2018-04-07T11:34:21.248Z,17.30
2018-04-07T11:36:50.017Z,17.50
2018-04-07T11:39:18.983Z,17.60
2018-04-07T11:41:47.447Z,17.50
2018-04-07T11:44:16.359Z,17.30
2018-04-07T11:46:44.765Z,17.40
2018-04-07T11:49:13.066Z,17.50
2018-04-07T11:51:41.375Z,17.40
2018-04-07T11:54:09.703Z,17.50
2018-04-07T11:56:38.793Z,17.50
2018-04-07T11:59:07.942Z,17.70
2018-04-07T12:01:36.276Z,17.60
2018-04-07T12:04:05.420Z,17.80
2018-04-07T12:06:34.515Z,17.80
2018-04-07T12:09:03.974Z,17.80
2018-04-07T12:11:32.437Z,17.80
2018-04-07T12:14:00.748Z,17.80
2018-04-07T12:16:29.434Z,17.90
2018-04-07T12:18:57.974Z,18.10
2018-04-07T12:21:26.662Z,18.10
2018-04-07T12:23:55.502Z,18.00
2018-04-07T12:26:24.340Z,18.20
2018-04-07T12:28:53.167Z,18.20
2018-04-07T12:31:22.833Z,18.40
2018-04-07T12:33:52.560Z,18.50
2018-04-07T12:36:21.630Z,18.40
2018-04-07T12:38:50.933Z,18.60
2018-04-07T12:41:19.874Z,18.50
2018-04-07T12:43:49.299Z,18.90
2018-04-07T12:46:17.776Z,18.80
2018-04-07T12:48:46.243Z,19.10
2018-04-07T12:51:14.643Z,19.30
2018-04-07T12:53:42.998Z,19.30
2018-04-07T12:56:12.086Z,19.40
2018-04-07T12:58:41.212Z,19.50
2018-04-07T13:01:10.362Z,19.70
2018-04-07T13:03:38.716Z,19.70
2018-04-07T13:06:07.893Z,20.30
2018-04-07T13:08:37.032Z,20.50
2018-04-07T13:11:05.394Z,20.50
2018-04-07T13:13:33.819Z,20.30
2018-04-07T13:16:02.999Z,20.60
2018-04-07T13:18:31.506Z,20.60
2018-04-07T13:21:00.178Z,21.00
2018-04-07T13:23:28.876Z,21.20
2018-04-07T13:25:58.438Z,21.30
2018-04-07T13:28:27.156Z,21.30
2018-04-07T13:30:56.056Z,21.40
2018-04-07T13:33:25.684Z,21.60
2018-04-07T13:35:54.387Z,21.50
2018-04-07T13:38:23.240Z,21.70
2018-04-07T13:40:52.783Z,22.20
2018-04-07T13:43:21.675Z,22.20
2018-04-07T13:45:50.507Z,22.30
2018-04-07T13:48:19.577Z,22.40
2018-04-07T13:50:48.084Z,22.30
2018-04-07T13:53:16.432Z,22.60
2018-04-07T13:55:44.784Z,22.70
2018-04-07T13:58:13.098Z,22.50
2018-04-07T14:00:41.588Z,22.40
2018-04-07T14:03:09.929Z,22.50
2018-04-07T14:05:38.285Z,22.50
2018-04-07T14:08:06.668Z,22.60
2018-04-07T14:10:35.549Z,22.60
2018-04-07T14:13:04.652Z,23.20
2018-04-07T14:15:33.314Z,23.20
2018-04-07T14:18:02.138Z,23.20
2018-04-07T14:20:31.673Z,23.40
2018-04-07T14:23:01.114Z,23.50
2018-04-07T14:25:29.766Z,23.50
2018-04-07T14:27:59.643Z,23.30
2018-04-07T14:30:28.277Z,23.20
2018-04-07T14:32:57.120Z,23.10
2018-04-07T14:35:27.195Z,23.10
2018-04-07T14:37:56.285Z,22.60
2018-04-07T14:40:25.291Z,22.70
2018-04-07T14:42:54.633Z,23.10
2018-04-07T14:45:24.128Z,23.40
2018-04-07T14:47:54.622Z,23.60
2018-04-07T14:50:23.916Z,23.60
2018-04-07T14:52:54.167Z,23.50
2018-04-07T14:55:23.553Z,23.00
2018-04-07T14:57:53.442Z,23.00
2018-04-07T15:00:23.399Z,23.10
2018-04-07T15:02:53.065Z,23.40
2018-04-07T15:05:22.381Z,23.30
2018-04-07T15:07:52.712Z,23.40
2018-04-07T15:10:22.449Z,23.30
2018-04-07T15:12:53.127Z,24.10
2018-04-07T15:15:23.968Z,24.10
2018-04-07T15:17:53.408Z,24.40
2018-04-07T15:20:23.273Z,24.40
2018-04-07T15:22:54.758Z,23.40
2018-04-07T15:25:26.633Z,23.40
2018-04-07T15:27:55.901Z,23.30
2018-04-07T15:30:25.453Z,22.70
2018-04-07T15:32:55.171Z,23.10
2018-04-07T15:35:24.541Z,23.20
2018-04-07T15:37:55.049Z,23.20
2018-04-07T15:40:26.062Z,23.00
2018-04-07T15:42:55.876Z,22.90
2018-04-07T15:45:25.719Z,22.90
2018-04-07T15:47:58.470Z,22.50
2018-04-07T15:50:28.704Z,22.60
2018-04-07T15:53:02.899Z,22.60
2018-04-07T15:55:32.101Z,22.60
2018-04-07T15:58:01.950Z,23.30
2018-04-07T16:00:31.034Z,23.30
2018-04-07T16:03:00.243Z,23.70
2018-04-07T16:05:29.720Z,23.70
2018-04-07T16:07:59.111Z,23.90
2018-04-07T16:10:30.672Z,22.80
2018-04-07T16:13:00.265Z,22.70
2018-04-07T16:15:29.506Z,22.70
2018-04-07T16:17:58.481Z,22.40
2018-04-07T16:20:27.805Z,22.10
2018-04-07T16:22:58.382Z,22.50
2018-04-07T16:25:30.462Z,22.40
2018-04-07T16:28:00.099Z,22.40
2018-04-07T16:30:32.203Z,21.80
2018-04-07T16:33:02.062Z,21.80
2018-04-07T16:35:31.363Z,21.40
2018-04-07T16:38:01.854Z,21.10
2018-04-07T16:40:33.507Z,21.10
2018-04-07T16:43:03.259Z,20.90
2018-04-07T16:45:32.924Z,21.20
2018-04-07T16:48:02.402Z,21.00
2018-04-07T16:50:31.568Z,20.50
2018-04-07T16:53:00.530Z,20.40
2018-04-07T16:55:29.892Z,20.20
2018-04-07T16:58:01.146Z,20.50
2018-04-07T17:00:30.175Z,20.20
2018-04-07T17:03:02.092Z,19.70
2018-04-07T17:05:31.938Z,19.10
2018-04-07T17:08:01.612Z,19.10
2018-04-07T17:10:31.549Z,19.30
2018-04-07T17:13:01.718Z,18.90
2018-04-07T17:15:31.453Z,18.60
2018-04-07T17:18:02.208Z,18.40
2018-04-07T17:20:31.183Z,18.40
2018-04-07T17:23:00.532Z,18.30
2018-04-07T17:25:31.794Z,18.00
2018-04-07T17:28:00.916Z,17.90
2018-04-07T17:30:30.007Z,17.50
2018-04-07T17:32:59.214Z,17.10
2018-04-07T17:35:28.322Z,16.70
2018-04-07T17:37:58.352Z,16.40
2018-04-07T17:40:27.523Z,16.20
2018-04-07T17:42:56.630Z,16.00
2018-04-07T17:45:25.731Z,15.90
2018-04-07T17:47:55.318Z,15.70
2018-04-07T17:50:24.709Z,15.60
2018-04-07T17:52:54.957Z,15.40
2018-04-07T17:55:24.397Z,15.30
2018-04-07T17:57:54.535Z,15.10
2018-04-07T18:00:24.262Z,15.10
2018-04-07T18:02:54.297Z,15.00
2018-04-07T18:05:23.483Z,14.80
2018-04-07T18:07:58.983Z,14.60
2018-04-07T18:10:29.479Z,14.50
2018-04-07T18:12:58.503Z,14.30
2018-04-07T18:15:27.585Z,14.20
2018-04-07T18:17:57.690Z,14.10
2018-04-07T18:20:26.428Z,14.10
2018-04-07T18:22:56.188Z,14.00
2018-04-07T18:25:24.994Z,14.00
2018-04-07T18:27:54.358Z,14.00
2018-04-07T18:30:23.458Z,14.00
2018-04-07T18:32:53.324Z,14.00
2018-04-07T18:35:22.361Z,13.90
2018-04-07T18:37:51.476Z,14.00
2018-04-07T18:40:20.739Z,13.90
2018-04-07T18:42:49.525Z,14.00
2018-04-07T18:45:18.483Z,14.10
2018-04-07T18:47:47.759Z,14.00
2018-04-07T18:50:16.268Z,14.00
2018-04-07T18:52:44.772Z,14.10
2018-04-07T18:55:13.149Z,14.10
2018-04-07T18:57:42.346Z,14.20
2018-04-07T19:00:11.493Z,14.10
2018-04-07T19:02:39.853Z,14.20
2018-04-07T19:05:09.021Z,14.40
2018-04-07T19:07:37.390Z,14.30
2018-04-07T19:10:05.883Z,14.40
2018-04-07T19:12:34.555Z,14.40
2018-04-07T19:15:03.384Z,14.50
2018-04-07T19:17:32.049Z,14.40
2018-04-07T19:20:00.850Z,14.30
2018-04-07T19:22:29.601Z,14.20
2018-04-07T19:24:58.276Z,14.20
2018-04-07T19:27:27.036Z,14.20
2018-04-07T19:29:55.964Z,14.20
2018-04-07T19:32:26.564Z,14.30
2018-04-07T19:34:55.402Z,14.30
2018-04-07T19:37:24.353Z,14.40
2018-04-07T19:39:54.071Z,14.30
2018-04-07T19:42:23.075Z,14.30
2018-04-07T19:44:51.921Z,14.20
2018-04-07T19:47:21.168Z,14.10
2018-04-07T19:49:50.225Z,14.00
2018-04-07T19:52:19.392Z,14.10
2018-04-07T19:54:47.996Z,14.10
2018-04-07T19:57:17.296Z,13.90
2018-04-07T19:59:46.449Z,14.00
2018-04-07T20:02:14.798Z,14.00
2018-04-07T20:04:43.131Z,14.00
2018-04-07T20:07:11.463Z,14.00
2018-04-07T20:09:40.571Z,13.70
2018-04-07T20:12:09.728Z,13.40
2018-04-07T20:14:38.074Z,13.40
2018-04-07T20:17:06.503Z,13.20
2018-04-07T20:19:34.848Z,13.10
2018-04-07T20:22:03.607Z,13.00
2018-04-07T20:24:32.831Z,13.00
2018-04-07T20:27:01.358Z,12.90
2018-04-07T20:29:31.058Z,12.70
2018-04-07T20:32:00.485Z,12.50
2018-04-07T20:34:29.188Z,12.50
2018-04-07T20:36:58.062Z,12.30
2018-04-07T20:39:26.681Z,12.10
2018-04-07T20:42:11.392Z,12.00
2018-04-07T20:44:41.729Z,12.00
2018-04-07T20:47:10.808Z,12.10
2018-04-07T20:49:39.127Z,12.10
2018-04-07T20:52:08.213Z,12.90
2018-04-07T20:54:36.536Z,12.80
2018-04-07T20:57:05.688Z,13.20
2018-04-07T20:59:34.024Z,13.20
2018-04-07T21:02:03.114Z,13.40
2018-04-07T21:04:31.968Z,13.40
2018-04-07T21:07:00.703Z,13.40
2018-04-07T21:09:29.314Z,13.50
2018-04-07T21:11:57.766Z,13.60
2018-04-07T21:14:27.088Z,13.60
2018-04-07T21:16:55.709Z,13.70
2018-04-07T21:19:25.384Z,13.60
2018-04-07T21:21:54.105Z,13.50
2018-04-07T21:24:23.843Z,13.60
2018-04-07T21:26:52.860Z,13.60
2018-04-07T21:29:22.565Z,13.70
2018-04-07T21:31:51.327Z,13.70
2018-04-07T21:34:21.260Z,13.70
2018-04-07T21:36:50.047Z,13.60
2018-04-07T21:39:20.170Z,13.60
2018-04-07T21:41:48.829Z,13.60
2018-04-07T21:44:18.033Z,13.70
2018-04-07T21:46:46.815Z,13.60
2018-04-07T21:49:16.073Z,13.60
2018-04-07T21:51:44.374Z,13.60
2018-04-07T21:54:12.689Z,13.60
2018-04-07T21:56:41.766Z,13.70
2018-04-07T21:59:10.076Z,13.70
2018-04-07T22:01:39.240Z,13.90
2018-04-07T22:04:07.547Z,13.90
2018-04-07T22:06:35.989Z,14.00
2018-04-07T22:09:06.078Z,14.10
2018-04-07T22:11:34.573Z,14.10
2018-04-07T22:14:03.295Z,14.10
2018-04-07T22:16:32.376Z,14.00
2018-04-07T22:19:01.134Z,14.00
2018-04-07T22:21:30.714Z,14.00
2018-04-07T22:23:59.401Z,14.00
2018-04-07T22:26:28.322Z,14.00
2018-04-07T22:28:56.989Z,14.00
2018-04-07T22:31:25.718Z,14.00
2018-04-07T22:33:54.483Z,13.90
2018-04-07T22:36:23.890Z,13.80
2018-04-07T22:38:52.943Z,13.70
2018-04-07T22:41:21.776Z,13.70
2018-04-07T22:43:50.721Z,13.60
2018-04-07T22:46:20.463Z,13.60
2018-04-07T22:48:49.008Z,13.60
2018-04-07T22:51:17.461Z,13.60
2018-04-07T22:53:46.632Z,13.70
2018-04-07T22:56:14.927Z,13.70
2018-04-07T22:58:43.256Z,13.70
2018-04-07T23:01:11.587Z,13.70
2018-04-07T23:03:39.950Z,13.70
2018-04-07T23:06:09.060Z,13.80
2018-04-07T23:08:38.150Z,13.70
2018-04-07T23:11:06.503Z,13.70
2018-04-07T23:13:34.813Z,13.60
2018-04-07T23:16:03.303Z,13.50
2018-04-07T23:18:31.971Z,13.40
2018-04-07T23:21:01.560Z,13.20
2018-04-07T23:23:30.271Z,13.10
2018-04-07T23:25:59.031Z,13.20
2018-04-07T23:28:28.615Z,13.30
2018-04-07T23:30:57.241Z,13.30
2018-04-07T23:33:26.161Z,13.30
2018-04-07T23:35:56.639Z,13.30
2018-04-07T23:38:25.449Z,13.30
2018-04-07T23:40:54.302Z,13.40
2018-04-07T23:43:23.150Z,13.40
2018-04-07T23:45:52.301Z,13.50
2018-04-07T23:48:22.185Z,13.40
2018-04-07T23:50:51.669Z,13.30
2018-04-07T23:53:20.693Z,13.30
2018-04-07T23:55:50.083Z,13.20
2018-04-07T23:58:19.615Z,13.00
